createdAt,value
2024-04-25T00:00:04.263Z,1.80
2024-04-25T00:00:36.344Z,1.77
2024-04-25T00:01:11.538Z,1.88
2024-04-25T00:01:43.383Z,1.60
2024-04-25T00:02:15.092Z,1.15
2024-04-25T00:02:49.810Z,1.58
2024-04-25T00:03:21.655Z,1.40
2024-04-25T00:03:53.518Z,1.48
2024-04-25T00:04:25.261Z,1.88
2024-04-25T00:04:57.073Z,1.60
2024-04-25T00:05:28.826Z,1.65
2024-04-25T00:06:00.621Z,1.50
2024-04-25T00:06:32.308Z,1.67
2024-04-25T00:07:04.006Z,1.85
2024-04-25T00:07:35.726Z,1.17
2024-04-25T00:08:08.398Z,2.10
2024-04-25T00:08:40.185Z,1.95
2024-04-25T00:09:12.151Z,1.25
2024-04-25T00:09:43.868Z,1.60
2024-04-25T00:10:15.666Z,1.65
2024-04-25T00:10:53.526Z,1.20
2024-04-25T00:11:27.525Z,1.88
2024-04-25T00:12:00.012Z,1.55
2024-04-25T00:12:31.789Z,1.48
2024-04-25T00:13:04.411Z,1.88
2024-04-25T00:13:36.134Z,1.30
2024-04-25T00:14:08.125Z,1.40
2024-04-25T00:14:39.946Z,1.20
2024-04-25T00:15:11.693Z,1.30
2024-04-25T00:15:43.404Z,1.40
2024-04-25T00:16:16.041Z,1.48
2024-04-25T00:16:47.899Z,1.60
2024-04-25T00:17:19.626Z,1.00
2024-04-25T00:17:51.507Z,1.35
2024-04-25T00:18:23.946Z,1.50
2024-04-25T00:18:55.699Z,1.20
2024-04-25T00:19:27.406Z,1.50
2024-04-25T00:19:59.110Z,1.60
2024-04-25T00:20:30.848Z,1.27
2024-04-25T00:21:02.627Z,2.22
2024-04-25T00:21:34.316Z,2.13
2024-04-25T00:22:06.605Z,1.50
2024-04-25T00:22:38.292Z,1.30
2024-04-25T00:23:10.075Z,1.27
2024-04-25T00:23:41.960Z,1.50
2024-04-25T00:24:13.655Z,1.58
2024-04-25T00:24:45.368Z,1.48
2024-04-25T00:25:17.226Z,1.60
2024-04-25T00:25:48.952Z,1.40
2024-04-25T00:26:22.622Z,1.50
2024-04-25T00:26:54.544Z,1.55
2024-04-25T00:27:26.286Z,1.58
2024-04-25T00:27:59.973Z,1.55
2024-04-25T00:28:31.675Z,1.55
2024-04-25T00:29:03.621Z,1.60
2024-04-25T00:29:35.435Z,1.73
2024-04-25T00:30:08.762Z,1.48
2024-04-25T00:30:40.563Z,1.50
2024-04-25T00:31:12.270Z,1.55
2024-04-25T00:31:43.971Z,1.30
2024-04-25T00:32:15.721Z,1.40
2024-04-25T00:32:47.866Z,1.50
2024-04-25T00:33:20.129Z,1.50
2024-04-25T00:33:52.086Z,1.95
2024-04-25T00:34:23.843Z,1.25
2024-04-25T00:34:58.889Z,1.27
2024-04-25T00:35:30.635Z,1.38
2024-04-25T00:36:02.327Z,1.33
2024-04-25T00:36:34.067Z,1.65
2024-04-25T00:37:05.828Z,1.58
2024-04-25T00:37:37.676Z,1.48
2024-04-25T00:38:11.320Z,2.38
2024-04-25T00:38:43.065Z,1.35
2024-04-25T00:39:14.890Z,1.60
2024-04-25T00:39:46.622Z,1.65
2024-04-25T00:40:18.388Z,1.60
2024-04-25T00:40:50.223Z,1.73
2024-04-25T00:41:22.021Z,1.45
2024-04-25T00:41:53.745Z,1.50
2024-04-25T00:42:25.608Z,1.05
2024-04-25T00:42:58.786Z,1.60
2024-04-25T00:43:32.011Z,1.30
2024-04-25T00:44:03.850Z,1.40
2024-04-25T00:44:35.699Z,1.58
2024-04-25T00:45:07.487Z,1.83
2024-04-25T00:45:39.220Z,1.52
2024-04-25T00:46:10.979Z,1.30
2024-04-25T00:46:43.697Z,1.30
2024-04-25T00:47:17.506Z,1.23
2024-04-25T00:47:49.857Z,1.35
2024-04-25T00:48:22.151Z,1.60
2024-04-25T00:48:54.357Z,1.50
2024-04-25T00:49:26.118Z,1.40
2024-04-25T00:49:58.547Z,1.73
2024-04-25T00:50:30.925Z,1.70
2024-04-25T00:51:05.085Z,1.50
2024-04-25T00:51:37.406Z,1.90
2024-04-25T00:52:09.498Z,1.58
2024-04-25T00:52:41.293Z,1.80
2024-04-25T00:53:13.909Z,1.50
2024-04-25T00:53:48.098Z,1.35
2024-04-25T00:54:19.880Z,1.52
2024-04-25T00:54:51.788Z,1.63
2024-04-25T00:55:23.589Z,1.60
2024-04-25T00:55:57.374Z,1.75
2024-04-25T00:56:29.373Z,1.63
2024-04-25T00:57:04.164Z,1.67
2024-04-25T00:57:38.514Z,1.63
2024-04-25T00:58:10.918Z,1.75
2024-04-25T00:58:45.005Z,2.15
2024-04-25T00:59:17.218Z,1.98
2024-04-25T00:59:51.167Z,1.73
2024-04-25T01:00:24.667Z,1.90
2024-04-25T01:00:58.329Z,1.42
2024-04-25T01:01:30.982Z,1.63
2024-04-25T01:02:06.224Z,1.73
2024-04-25T01:02:38.784Z,1.48
2024-04-25T01:03:12.185Z,1.40
2024-04-25T01:03:45.089Z,1.92
2024-04-25T01:04:17.427Z,1.60
2024-04-25T01:04:50.542Z,1.55
2024-04-25T01:05:25.212Z,1.63
2024-04-25T01:05:57.553Z,1.40
2024-04-25T01:06:33.817Z,1.45
2024-04-25T01:07:05.727Z,1.30
2024-04-25T01:07:37.480Z,2.03
2024-04-25T01:08:09.457Z,1.42
2024-04-25T01:08:41.282Z,1.10
2024-04-25T01:09:13.117Z,1.17
2024-04-25T01:09:45.235Z,1.40
2024-04-25T01:10:17.160Z,1.40
2024-04-25T01:10:51.481Z,1.60
2024-04-25T01:11:23.388Z,1.40
2024-04-25T01:11:55.192Z,1.88
2024-04-25T01:12:28.451Z,1.40
2024-04-25T01:13:00.215Z,1.25
2024-04-25T01:13:31.943Z,1.10
2024-04-25T01:14:03.985Z,1.42
2024-04-25T01:14:36.016Z,1.42
2024-04-25T01:15:07.959Z,1.85
2024-04-25T01:15:39.855Z,1.20
2024-04-25T01:16:14.420Z,1.50
2024-04-25T01:16:46.191Z,1.35
2024-04-25T01:17:18.050Z,1.75
2024-04-25T01:17:49.878Z,1.00
2024-04-25T01:18:23.557Z,1.65
2024-04-25T01:18:55.245Z,1.35
2024-04-25T01:19:27.036Z,1.58
2024-04-25T01:19:58.767Z,1.58
2024-04-25T01:20:30.545Z,1.67
2024-04-25T01:21:02.335Z,1.60
2024-04-25T01:21:35.467Z,1.50
2024-04-25T01:22:07.744Z,1.30
2024-04-25T01:22:53.219Z,1.63
2024-04-25T01:23:27.534Z,1.20
2024-04-25T01:24:02.830Z,1.70
2024-04-25T01:24:35.048Z,1.35
2024-04-25T01:25:07.913Z,1.27
2024-04-25T01:25:39.976Z,1.05
2024-04-25T01:26:12.385Z,1.30
2024-04-25T01:26:44.869Z,1.45
2024-04-25T01:27:17.351Z,1.35
2024-04-25T01:27:49.975Z,1.40
2024-04-25T01:28:21.932Z,1.25
2024-04-25T01:28:55.643Z,1.20
2024-04-25T01:29:28.149Z,1.23
2024-04-25T01:30:00.163Z,1.05
2024-04-25T01:30:33.016Z,1.48
2024-04-25T01:31:05.250Z,1.10
2024-04-25T01:31:36.949Z,1.40
2024-04-25T01:32:08.962Z,1.02
2024-04-25T01:32:41.334Z,1.50
2024-04-25T01:33:14.600Z,1.30
2024-04-25T01:33:46.879Z,1.10
2024-04-25T01:34:18.805Z,1.13
2024-04-25T01:34:51.800Z,0.98
2024-04-25T01:35:26.156Z,1.30
2024-04-25T01:35:57.919Z,1.20
2024-04-25T01:36:29.881Z,1.55
2024-04-25T01:37:01.676Z,1.40
2024-04-25T01:37:35.485Z,1.50
2024-04-25T01:38:07.515Z,1.10
2024-04-25T01:38:39.479Z,1.52
2024-04-25T01:39:11.760Z,1.38
2024-04-25T01:39:43.667Z,1.40
2024-04-25T01:40:15.511Z,1.27
2024-04-25T01:40:47.319Z,1.27
2024-04-25T01:41:19.125Z,2.20
2024-04-25T01:41:50.894Z,1.48
2024-04-25T01:42:22.711Z,1.42
2024-04-25T01:42:54.648Z,1.17
2024-04-25T01:43:26.348Z,1.55
2024-04-25T01:43:58.030Z,1.00
2024-04-25T01:44:29.769Z,0.77
2024-04-25T01:45:01.566Z,1.50
2024-04-25T01:45:33.314Z,1.42
2024-04-25T01:46:05.054Z,1.27
2024-04-25T01:46:37.090Z,1.25
2024-04-25T01:47:09.082Z,1.13
2024-04-25T01:47:40.907Z,0.88
2024-04-25T01:48:12.776Z,1.25
2024-04-25T01:48:47.130Z,1.10
2024-04-25T01:49:18.991Z,1.23
2024-04-25T01:49:50.693Z,1.17
2024-04-25T01:50:22.468Z,2.20
2024-04-25T01:50:54.235Z,1.27
2024-04-25T01:51:25.991Z,1.20
2024-04-25T01:51:57.699Z,1.60
2024-04-25T01:52:29.407Z,1.73
2024-04-25T01:53:01.140Z,1.60
2024-04-25T01:53:32.950Z,1.33
2024-04-25T01:54:04.798Z,1.40
2024-04-25T01:54:36.670Z,1.10
2024-04-25T01:55:08.427Z,1.13
2024-04-25T01:55:40.558Z,0.70
2024-04-25T01:56:12.983Z,1.55
2024-04-25T01:56:44.807Z,1.15
2024-04-25T01:57:16.601Z,1.30
2024-04-25T01:57:48.273Z,1.25
2024-04-25T01:58:20.103Z,1.25
2024-04-25T01:58:54.586Z,1.38
2024-04-25T01:59:26.586Z,1.33
2024-04-25T01:59:58.397Z,1.20
2024-04-25T02:00:30.128Z,1.10
2024-04-25T02:01:01.890Z,1.10
2024-04-25T02:01:33.602Z,1.25
2024-04-25T02:02:05.528Z,1.13
2024-04-25T02:02:37.540Z,1.02
2024-04-25T02:03:09.367Z,1.52
2024-04-25T02:03:41.180Z,0.98
2024-04-25T02:04:12.934Z,1.48
2024-04-25T02:04:44.801Z,1.38
2024-04-25T02:05:16.606Z,1.35
2024-04-25T02:05:48.417Z,1.52
2024-04-25T02:06:20.231Z,1.42
2024-04-25T02:06:51.989Z,1.38
2024-04-25T02:07:23.678Z,1.42
2024-04-25T02:07:56.073Z,1.38
2024-04-25T02:08:27.866Z,1.00
2024-04-25T02:08:59.680Z,1.20
2024-04-25T02:09:31.390Z,1.20
2024-04-25T02:10:03.443Z,1.30
2024-04-25T02:10:35.151Z,1.38
2024-04-25T02:11:10.121Z,1.52
2024-04-25T02:11:41.963Z,1.25
2024-04-25T02:12:13.903Z,1.30
2024-04-25T02:12:45.674Z,1.52
2024-04-25T02:13:17.959Z,1.65
2024-04-25T02:13:49.637Z,1.50
2024-04-25T02:14:21.413Z,1.10
2024-04-25T02:14:53.136Z,1.40
2024-04-25T02:15:24.816Z,1.50
2024-04-25T02:15:56.583Z,1.30
2024-04-25T02:16:28.328Z,1.48
2024-04-25T02:17:00.030Z,1.23
2024-04-25T02:17:31.840Z,1.27
2024-04-25T02:18:03.971Z,1.60
2024-04-25T02:18:36.077Z,1.35
2024-04-25T02:19:07.858Z,1.00
2024-04-25T02:19:39.519Z,1.23
2024-04-25T02:20:30.156Z,1.75
2024-04-25T02:21:20.634Z,1.25
2024-04-25T02:22:11.003Z,1.45
2024-04-25T02:23:01.474Z,1.05
2024-04-25T02:23:51.884Z,1.40
2024-04-25T02:24:42.288Z,1.02
2024-04-25T02:25:16.951Z,1.50
2024-04-25T02:25:48.678Z,1.20
2024-04-25T02:26:20.390Z,1.35
2024-04-25T02:26:52.173Z,1.80
2024-04-25T02:27:24.037Z,1.33
2024-04-25T02:27:55.818Z,1.90
2024-04-25T02:28:27.548Z,1.98
2024-04-25T02:28:59.291Z,1.60
2024-04-25T02:29:31.110Z,1.45
2024-04-25T02:30:02.828Z,1.77
2024-04-25T02:30:34.943Z,2.40
2024-04-25T02:31:06.714Z,2.00
2024-04-25T02:31:41.735Z,1.50
2024-04-25T02:32:13.648Z,1.50
2024-04-25T02:32:45.483Z,1.55
2024-04-25T02:33:17.451Z,3.58
2024-04-25T02:33:49.259Z,2.13
2024-04-25T02:34:20.974Z,2.17
2024-04-25T02:34:52.696Z,2.10
2024-04-25T02:35:26.565Z,2.33
2024-04-25T02:35:58.329Z,2.42
2024-04-25T02:36:30.117Z,2.03
2024-04-25T02:37:01.897Z,2.40
2024-04-25T02:37:33.618Z,2.22
2024-04-25T02:38:05.472Z,2.30
2024-04-25T02:38:37.319Z,1.92
2024-04-25T02:39:10.510Z,2.08
2024-04-25T02:39:42.248Z,1.90
2024-04-25T02:40:13.966Z,2.42
2024-04-25T02:40:45.869Z,2.10
2024-04-25T02:41:17.562Z,1.63
2024-04-25T02:41:49.299Z,1.88
2024-04-25T02:42:21.027Z,2.10
2024-04-25T02:42:52.820Z,1.90
2024-04-25T02:43:24.491Z,1.90
2024-04-25T02:43:56.203Z,1.80
2024-04-25T02:44:27.919Z,1.83
2024-04-25T02:44:59.661Z,2.65
2024-04-25T02:45:31.475Z,1.30
2024-04-25T02:46:03.227Z,2.03
2024-04-25T02:46:34.981Z,1.30
2024-04-25T02:47:06.828Z,1.67
2024-04-25T02:47:38.675Z,1.52
2024-04-25T02:48:10.886Z,1.92
2024-04-25T02:48:43.000Z,1.85
2024-04-25T02:49:14.858Z,2.08
2024-04-25T02:49:46.597Z,2.97
2024-04-25T02:50:18.470Z,2.20
2024-04-25T02:50:50.275Z,1.90
2024-04-25T02:51:22.009Z,2.03
2024-04-25T02:51:53.833Z,2.65
2024-04-25T02:52:25.628Z,2.20
2024-04-25T02:52:57.392Z,2.30
2024-04-25T02:53:32.338Z,2.15
2024-04-25T02:54:04.300Z,2.80
2024-04-25T02:54:35.997Z,2.30
2024-04-25T02:55:07.780Z,2.38
2024-04-25T02:55:39.632Z,2.33
2024-04-25T02:56:11.363Z,1.77
2024-04-25T02:56:43.160Z,2.03
2024-04-25T02:57:14.918Z,1.85
2024-04-25T02:57:46.900Z,2.17
2024-04-25T02:58:18.718Z,2.05
2024-04-25T02:58:50.408Z,2.15
2024-04-25T02:59:22.286Z,2.30
2024-04-25T02:59:54.002Z,2.10
2024-04-25T03:00:25.708Z,2.50
2024-04-25T03:01:01.303Z,1.90
2024-04-25T03:01:33.056Z,2.38
2024-04-25T03:02:05.017Z,2.38
2024-04-25T03:02:37.450Z,2.47
2024-04-25T03:03:09.410Z,1.90
2024-04-25T03:03:41.245Z,2.10
2024-04-25T03:04:13.188Z,2.35
2024-04-25T03:04:44.943Z,2.25
2024-04-25T03:05:16.790Z,2.60
2024-04-25T03:05:48.577Z,2.58
2024-04-25T03:06:20.395Z,3.55
2024-04-25T03:06:52.090Z,2.65
2024-04-25T03:07:23.789Z,1.88
2024-04-25T03:07:55.698Z,3.05
2024-04-25T03:08:27.637Z,2.45
2024-04-25T03:08:59.427Z,2.17
2024-04-25T03:09:31.163Z,2.60
2024-04-25T03:10:02.966Z,2.63
2024-04-25T03:10:34.700Z,2.45
2024-04-25T03:11:06.726Z,2.40
2024-04-25T03:11:38.675Z,2.92
2024-04-25T03:12:10.453Z,2.30
2024-04-25T03:12:42.177Z,2.50
2024-04-25T03:13:15.192Z,2.28
2024-04-25T03:13:46.867Z,2.55
2024-04-25T03:14:18.705Z,2.25
2024-04-25T03:14:53.396Z,2.58
2024-04-25T03:15:25.610Z,3.40
2024-04-25T03:15:59.882Z,2.33
2024-04-25T03:16:31.697Z,2.17
2024-04-25T03:17:03.424Z,2.85
2024-04-25T03:17:35.273Z,2.13
2024-04-25T03:18:07.202Z,2.20
2024-04-25T03:18:39.034Z,2.40
2024-04-25T03:19:10.795Z,2.28
2024-04-25T03:19:42.522Z,2.72
2024-04-25T03:20:14.477Z,2.28
2024-04-25T03:20:46.434Z,3.33
2024-04-25T03:21:19.040Z,2.70
2024-04-25T03:21:50.941Z,2.30
2024-04-25T03:22:22.656Z,2.60
2024-04-25T03:22:54.452Z,2.35
2024-04-25T03:23:26.221Z,2.83
2024-04-25T03:23:58.083Z,2.80
2024-04-25T03:24:29.782Z,3.92
2024-04-25T03:25:01.492Z,2.38
2024-04-25T03:25:34.260Z,2.97
2024-04-25T03:26:06.500Z,2.35
2024-04-25T03:26:38.360Z,3.40
2024-04-25T03:27:10.063Z,2.58
2024-04-25T03:27:42.025Z,3.38
2024-04-25T03:28:13.764Z,2.75
2024-04-25T03:28:45.468Z,2.35
2024-04-25T03:29:17.352Z,3.42
2024-04-25T03:29:49.128Z,2.83
2024-04-25T03:30:20.843Z,3.05
2024-04-25T03:30:52.548Z,3.42
2024-04-25T03:31:24.365Z,3.60
2024-04-25T03:31:56.120Z,3.72
2024-04-25T03:32:30.217Z,2.60
2024-04-25T03:33:02.212Z,3.40
2024-04-25T03:33:34.139Z,2.75
2024-04-25T03:34:05.929Z,3.13
2024-04-25T03:34:38.315Z,2.45
2024-04-25T03:35:10.228Z,3.03
2024-04-25T03:35:42.182Z,2.97
2024-04-25T03:36:14.038Z,3.17
2024-04-25T03:36:46.001Z,3.35
2024-04-25T03:37:17.868Z,3.15
2024-04-25T03:37:49.554Z,3.47
2024-04-25T03:38:21.380Z,2.80
2024-04-25T03:38:53.177Z,3.40
2024-04-25T03:39:25.018Z,2.97
2024-04-25T03:39:56.704Z,2.67
2024-04-25T03:40:28.481Z,3.40
2024-04-25T03:41:00.301Z,2.83
2024-04-25T03:41:34.104Z,2.83
2024-04-25T03:42:07.730Z,2.30
2024-04-25T03:42:39.438Z,3.33
2024-04-25T03:43:11.399Z,2.55
2024-04-25T03:43:43.403Z,2.58
2024-04-25T03:44:15.179Z,2.42
2024-04-25T03:44:47.002Z,3.30
2024-04-25T03:45:18.740Z,3.40
2024-04-25T03:45:50.641Z,3.42
2024-04-25T03:46:22.349Z,2.92
2024-04-25T03:46:54.100Z,2.83
2024-04-25T03:47:26.483Z,3.22
2024-04-25T03:47:58.352Z,2.42
2024-04-25T03:48:30.326Z,3.25
2024-04-25T03:49:04.255Z,3.13
2024-04-25T03:49:36.127Z,3.03
2024-04-25T03:50:08.130Z,2.65
2024-04-25T03:50:40.686Z,3.95
2024-04-25T03:51:12.409Z,3.35
2024-04-25T03:51:44.155Z,3.10
2024-04-25T03:52:15.927Z,3.20
2024-04-25T03:52:48.139Z,3.15
2024-04-25T03:53:19.900Z,3.08
2024-04-25T03:53:52.204Z,3.65
2024-04-25T03:54:24.101Z,3.17
2024-04-25T03:54:55.791Z,3.70
2024-04-25T03:55:27.690Z,2.75
2024-04-25T03:55:59.391Z,3.22
2024-04-25T03:56:31.097Z,4.22
2024-04-25T03:57:02.903Z,3.53
2024-04-25T03:57:34.684Z,3.05
2024-04-25T03:58:06.373Z,3.45
2024-04-25T03:58:38.267Z,3.00
2024-04-25T03:59:10.063Z,3.58
2024-04-25T03:59:41.896Z,3.70
2024-04-25T04:00:13.889Z,3.13
2024-04-25T04:00:45.604Z,3.33
2024-04-25T04:01:17.395Z,3.40
2024-04-25T04:01:49.725Z,3.05
2024-04-25T04:02:24.531Z,3.33
2024-04-25T04:02:56.395Z,3.30
2024-04-25T04:03:28.174Z,2.78
2024-04-25T04:04:00.468Z,3.00
2024-04-25T04:04:32.199Z,3.25
2024-04-25T04:05:04.660Z,3.38
2024-04-25T04:05:36.484Z,2.42
2024-04-25T04:06:08.714Z,3.80
2024-04-25T04:06:40.465Z,2.70
2024-04-25T04:07:12.338Z,2.92
2024-04-25T04:07:44.999Z,3.25
2024-04-25T04:08:16.879Z,2.85
2024-04-25T04:08:48.644Z,2.92
2024-04-25T04:09:20.371Z,3.13
2024-04-25T04:09:52.059Z,3.30
2024-04-25T04:10:23.790Z,3.28
2024-04-25T04:10:55.601Z,3.47
2024-04-25T04:11:27.420Z,2.95
2024-04-25T04:11:59.620Z,3.35
2024-04-25T04:12:31.455Z,3.60
2024-04-25T04:13:03.213Z,3.45
2024-04-25T04:13:36.972Z,3.15
2024-04-25T04:14:08.829Z,3.35
2024-04-25T04:14:41.537Z,3.30
2024-04-25T04:15:14.159Z,3.50
2024-04-25T04:15:46.849Z,3.53
2024-04-25T04:16:18.599Z,3.08
2024-04-25T04:16:58.219Z,3.78
2024-04-25T04:17:31.523Z,3.05
2024-04-25T04:18:03.668Z,3.08
2024-04-25T04:18:35.467Z,3.22
2024-04-25T04:19:07.144Z,4.07
2024-04-25T04:19:38.963Z,3.97
2024-04-25T04:20:10.903Z,3.20
2024-04-25T04:20:45.650Z,3.10
2024-04-25T04:21:17.457Z,2.67
2024-04-25T04:21:49.185Z,3.50
2024-04-25T04:22:20.940Z,2.65
2024-04-25T04:22:52.684Z,2.97
2024-04-25T04:23:24.456Z,4.00
2024-04-25T04:23:56.180Z,3.50
2024-04-25T04:24:27.945Z,3.75
2024-04-25T04:24:59.667Z,2.80
2024-04-25T04:25:31.373Z,3.67
2024-04-25T04:26:03.233Z,3.20
2024-04-25T04:26:35.198Z,3.30
2024-04-25T04:27:06.932Z,3.22
2024-04-25T04:27:38.712Z,2.97
2024-04-25T04:28:13.518Z,3.90
2024-04-25T04:28:46.746Z,3.42
2024-04-25T04:29:18.490Z,2.78
2024-04-25T04:29:50.201Z,3.35
2024-04-25T04:30:22.544Z,3.78
2024-04-25T04:30:54.291Z,3.53
2024-04-25T04:31:25.994Z,2.90
2024-04-25T04:31:57.942Z,3.40
2024-04-25T04:32:29.791Z,3.22
2024-04-25T04:33:01.896Z,3.03
2024-04-25T04:33:39.900Z,3.25
2024-04-25T04:34:12.844Z,3.38
2024-04-25T04:34:45.782Z,4.90
2024-04-25T04:35:17.517Z,3.65
2024-04-25T04:35:49.448Z,3.80
2024-04-25T04:36:21.168Z,3.28
2024-04-25T04:36:52.908Z,3.50
2024-04-25T04:37:24.648Z,3.28
2024-04-25T04:37:56.354Z,3.30
2024-04-25T04:38:28.244Z,3.25
2024-04-25T04:38:59.985Z,3.17
2024-04-25T04:39:31.678Z,3.63
2024-04-25T04:40:05.782Z,3.70
2024-04-25T04:40:37.489Z,2.80
2024-04-25T04:41:09.265Z,4.00
2024-04-25T04:41:41.101Z,3.85
2024-04-25T04:42:12.857Z,3.65
2024-04-25T04:42:44.550Z,3.53
2024-04-25T04:43:16.230Z,3.75
2024-04-25T04:43:48.142Z,3.92
2024-04-25T04:44:19.882Z,3.72
2024-04-25T04:44:51.681Z,4.18
2024-04-25T04:45:23.396Z,3.65
2024-04-25T04:45:57.221Z,4.95
2024-04-25T04:46:28.936Z,4.47
2024-04-25T04:47:00.647Z,3.65
2024-04-25T04:47:32.557Z,3.80
2024-04-25T04:48:07.706Z,4.10
2024-04-25T04:48:47.010Z,4.15
2024-04-25T04:49:18.906Z,4.35
2024-04-25T04:49:50.598Z,4.13
2024-04-25T04:50:23.098Z,4.25
2024-04-25T04:50:55.642Z,3.95
2024-04-25T04:51:27.540Z,4.07
2024-04-25T04:51:59.268Z,4.53
2024-04-25T04:52:33.520Z,4.05
2024-04-25T04:53:05.234Z,3.75
2024-04-25T04:53:37.148Z,4.55
2024-04-25T04:54:09.063Z,4.40
2024-04-25T04:54:40.774Z,3.60
2024-04-25T04:55:15.174Z,5.07
2024-04-25T04:55:46.976Z,4.45
2024-04-25T04:56:19.609Z,3.60
2024-04-25T04:56:51.352Z,4.25
2024-04-25T04:57:23.051Z,5.07
2024-04-25T04:57:54.762Z,4.10
2024-04-25T04:58:26.679Z,4.18
2024-04-25T04:58:58.518Z,4.28
2024-04-25T04:59:31.465Z,4.10
2024-04-25T05:00:03.689Z,4.25
2024-04-25T05:00:36.176Z,4.03
2024-04-25T05:01:08.343Z,4.15
2024-04-25T05:01:40.158Z,4.25
2024-04-25T05:02:12.068Z,3.83
2024-04-25T05:02:43.874Z,4.47
2024-04-25T05:03:15.984Z,3.58
2024-04-25T05:03:47.800Z,4.50
2024-04-25T05:04:19.553Z,4.22
2024-04-25T05:04:51.329Z,4.40
2024-04-25T05:05:23.110Z,4.38
2024-04-25T05:05:54.952Z,4.68
2024-04-25T05:06:27.213Z,4.68
2024-04-25T05:06:58.958Z,3.70
2024-04-25T05:07:30.681Z,4.00
2024-04-25T05:08:02.435Z,4.47
2024-04-25T05:08:37.596Z,3.95
2024-04-25T05:09:10.745Z,4.25
2024-04-25T05:09:42.465Z,4.50
2024-04-25T05:10:14.357Z,4.38
2024-04-25T05:10:46.268Z,4.13
2024-04-25T05:11:18.243Z,4.18
2024-04-25T05:11:50.297Z,4.20
2024-04-25T05:12:22.136Z,3.95
2024-04-25T05:12:54.807Z,4.40
2024-04-25T05:13:26.578Z,4.25
2024-04-25T05:14:01.022Z,4.38
2024-04-25T05:14:32.922Z,4.07
2024-04-25T05:15:05.166Z,5.57
2024-04-25T05:15:37.679Z,4.43
2024-04-25T05:16:10.827Z,4.10
2024-04-25T05:16:42.760Z,4.63
2024-04-25T05:17:14.543Z,4.40
2024-04-25T05:17:46.274Z,3.88
2024-04-25T05:18:18.092Z,3.85
2024-04-25T05:18:49.837Z,4.25
2024-04-25T05:19:21.592Z,4.88
2024-04-25T05:19:53.487Z,4.53
2024-04-25T05:20:25.204Z,4.65
2024-04-25T05:20:57.226Z,5.20
2024-04-25T05:21:32.151Z,4.13
2024-04-25T05:22:04.466Z,5.10
2024-04-25T05:22:37.548Z,4.13
2024-04-25T05:23:09.276Z,4.18
2024-04-25T05:23:41.100Z,4.68
2024-04-25T05:24:12.918Z,4.88
2024-04-25T05:24:44.806Z,4.07
2024-04-25T05:25:16.734Z,4.05
2024-04-25T05:25:50.890Z,4.47
2024-04-25T05:26:22.637Z,4.80
2024-04-25T05:26:54.354Z,4.45
2024-04-25T05:27:26.070Z,4.15
2024-04-25T05:27:58.006Z,4.90
2024-04-25T05:28:29.772Z,4.75
2024-04-25T05:29:02.862Z,4.15
2024-04-25T05:29:35.959Z,4.95
2024-04-25T05:30:09.148Z,4.00
2024-04-25T05:30:40.895Z,3.85
2024-04-25T05:31:12.599Z,4.38
2024-04-25T05:31:44.278Z,3.80
2024-04-25T05:32:16.059Z,4.50
2024-04-25T05:32:47.967Z,5.03
2024-04-25T05:33:19.994Z,4.40
2024-04-25T05:33:52.076Z,5.03
2024-04-25T05:34:24.020Z,5.60
2024-04-25T05:34:59.231Z,4.40
2024-04-25T05:35:32.575Z,5.18
2024-04-25T05:36:04.568Z,5.05
2024-04-25T05:36:36.265Z,4.00
2024-04-25T05:37:08.002Z,5.15
2024-04-25T05:37:39.823Z,4.50
2024-04-25T05:38:11.539Z,4.38
2024-04-25T05:38:43.334Z,4.68
2024-04-25T05:39:15.303Z,5.18
2024-04-25T05:39:46.997Z,4.20
2024-04-25T05:40:18.871Z,4.18
2024-04-25T05:40:50.691Z,4.55
2024-04-25T05:41:22.834Z,4.70
2024-04-25T05:41:54.547Z,4.70
2024-04-25T05:42:26.214Z,4.25
2024-04-25T05:42:57.932Z,4.30
2024-04-25T05:43:29.646Z,4.20
2024-04-25T05:44:01.427Z,4.30
2024-04-25T05:44:33.165Z,4.75
2024-04-25T05:45:05.541Z,3.95
2024-04-25T05:45:37.227Z,4.65
2024-04-25T05:46:10.194Z,5.47
2024-04-25T05:46:41.930Z,3.65
2024-04-25T05:47:15.985Z,3.65
2024-04-25T05:47:47.990Z,3.42
2024-04-25T05:48:19.934Z,3.63
2024-04-25T05:48:51.673Z,3.30
2024-04-25T05:49:23.423Z,3.00
2024-04-25T05:49:55.108Z,3.22
2024-04-25T05:50:26.997Z,3.30
2024-04-25T05:51:00.234Z,3.05
2024-04-25T05:51:32.027Z,2.85
2024-04-25T05:52:03.829Z,3.47
2024-04-25T05:52:36.019Z,3.10
2024-04-25T05:53:09.477Z,3.10
2024-04-25T05:53:41.372Z,3.08
2024-04-25T05:54:13.215Z,2.85
2024-04-25T05:54:44.928Z,2.85
2024-04-25T05:55:16.795Z,3.47
2024-04-25T05:55:48.519Z,2.78
2024-04-25T05:56:20.385Z,2.85
2024-04-25T05:56:52.122Z,2.72
2024-04-25T05:57:23.822Z,2.75
2024-04-25T05:57:55.522Z,2.63
2024-04-25T05:58:27.255Z,3.03
2024-04-25T05:58:59.174Z,2.92
2024-04-25T05:59:30.929Z,2.75
2024-04-25T06:00:02.922Z,2.55
2024-04-25T06:00:37.425Z,2.55
2024-04-25T06:01:11.463Z,2.20
2024-04-25T06:01:43.248Z,3.33
2024-04-25T06:02:15.113Z,2.95
2024-04-25T06:02:49.325Z,2.47
2024-04-25T06:03:21.132Z,3.00
2024-04-25T06:03:53.399Z,2.88
2024-04-25T06:04:25.240Z,3.13
2024-04-25T06:04:56.988Z,3.03
2024-04-25T06:05:28.744Z,2.72
2024-04-25T06:06:02.466Z,2.88
2024-04-25T06:06:34.260Z,2.78
2024-04-25T06:07:06.007Z,3.25
2024-04-25T06:07:37.830Z,2.92
2024-04-25T06:08:09.533Z,3.10
2024-04-25T06:08:41.577Z,3.15
2024-04-25T06:09:13.531Z,2.47
2024-04-25T06:09:45.350Z,3.13
2024-04-25T06:10:17.240Z,3.30
2024-04-25T06:10:49.315Z,3.70
2024-04-25T06:11:21.256Z,3.03
2024-04-25T06:11:53.355Z,3.35
2024-04-25T06:12:25.345Z,2.90
2024-04-25T06:12:57.326Z,3.30
2024-04-25T06:13:29.117Z,3.38
2024-04-25T06:14:00.880Z,2.72
2024-04-25T06:14:32.609Z,3.10
2024-04-25T06:15:04.486Z,3.42
2024-04-25T06:15:37.303Z,2.92
2024-04-25T06:16:09.149Z,3.17
2024-04-25T06:16:40.862Z,3.30
2024-04-25T06:17:12.977Z,3.17
2024-04-25T06:17:44.991Z,3.42
2024-04-25T06:18:16.905Z,3.22
2024-04-25T06:18:48.707Z,3.35
2024-04-25T06:19:20.456Z,3.53
2024-04-25T06:19:52.289Z,3.75
2024-04-25T06:20:24.006Z,3.25
2024-04-25T06:20:56.541Z,3.08
2024-04-25T06:21:28.227Z,3.40
2024-04-25T06:22:00.134Z,2.95
2024-04-25T06:22:32.484Z,3.60
2024-04-25T06:23:06.659Z,3.78
2024-04-25T06:23:38.697Z,3.38
2024-04-25T06:24:10.436Z,3.15
2024-04-25T06:24:42.312Z,3.53
2024-04-25T06:25:14.074Z,2.95
2024-04-25T06:25:47.187Z,4.25
2024-04-25T06:26:18.952Z,3.60
2024-04-25T06:26:50.735Z,3.63
2024-04-25T06:27:22.448Z,3.20
2024-04-25T06:27:55.429Z,3.38
2024-04-25T06:28:27.147Z,3.85
2024-04-25T06:28:59.020Z,3.13
2024-04-25T06:29:30.794Z,2.95
2024-04-25T06:30:02.492Z,3.53
2024-04-25T06:30:34.475Z,3.42
2024-04-25T06:31:06.455Z,3.70
2024-04-25T06:31:38.251Z,3.38
2024-04-25T06:32:10.223Z,3.78
2024-04-25T06:32:42.296Z,3.28
2024-04-25T06:33:14.206Z,2.85
2024-04-25T06:33:46.081Z,4.15
2024-04-25T06:34:17.890Z,5.28
2024-04-25T06:34:51.994Z,3.67
2024-04-25T06:35:23.788Z,3.85
2024-04-25T06:35:55.631Z,3.40
2024-04-25T06:36:28.364Z,3.53
2024-04-25T06:37:00.962Z,3.55
2024-04-25T06:37:32.743Z,4.53
2024-04-25T06:38:04.696Z,3.50
2024-04-25T06:38:36.475Z,4.00
2024-04-25T06:39:10.158Z,3.53
2024-04-25T06:39:42.189Z,4.03
2024-04-25T06:40:14.044Z,3.75
2024-04-25T06:40:46.530Z,3.78
2024-04-25T06:41:18.581Z,3.80
2024-04-25T06:41:54.260Z,3.70
2024-04-25T06:42:30.228Z,4.43
2024-04-25T06:43:01.912Z,3.22
2024-04-25T06:43:35.756Z,4.50
2024-04-25T06:44:18.458Z,3.97
2024-04-25T06:44:55.791Z,4.10
2024-04-25T06:45:27.585Z,3.33
2024-04-25T06:45:59.325Z,3.50
2024-04-25T06:46:31.056Z,4.38
2024-04-25T06:47:03.586Z,4.85
2024-04-25T06:47:35.416Z,4.40
2024-04-25T06:48:11.349Z,3.70
2024-04-25T06:48:43.294Z,3.88
2024-04-25T06:49:15.766Z,3.33
2024-04-25T06:49:47.708Z,3.85
2024-04-25T06:50:19.439Z,4.57
2024-04-25T06:50:51.272Z,3.60
2024-04-25T06:51:23.109Z,3.35
2024-04-25T06:51:55.120Z,4.10
2024-04-25T06:52:27.015Z,4.35
2024-04-25T06:52:58.830Z,3.95
2024-04-25T06:53:30.598Z,3.38
2024-04-25T06:54:02.480Z,4.30
2024-04-25T06:54:34.198Z,4.18
2024-04-25T06:55:06.501Z,4.10
2024-04-25T06:55:38.216Z,3.47
2024-04-25T06:56:10.049Z,3.50
2024-04-25T06:56:41.982Z,3.67
2024-04-25T06:57:14.103Z,3.88
2024-04-25T06:57:45.836Z,2.92
2024-04-25T06:58:17.555Z,3.38
2024-04-25T06:58:49.333Z,3.65
2024-04-25T06:59:21.250Z,3.90
2024-04-25T06:59:54.296Z,3.33
2024-04-25T07:00:26.192Z,2.78
2024-04-25T07:00:58.105Z,3.40
2024-04-25T07:01:29.947Z,2.60
2024-04-25T07:02:05.803Z,3.20
2024-04-25T07:02:39.344Z,3.45
2024-04-25T07:03:14.264Z,3.25
2024-04-25T07:03:49.167Z,3.15
2024-04-25T07:04:20.958Z,3.90
2024-04-25T07:04:52.711Z,2.72
2024-04-25T07:05:24.480Z,2.88
2024-04-25T07:05:56.232Z,3.05
2024-04-25T07:06:28.081Z,3.03
2024-04-25T07:06:59.874Z,2.70
2024-04-25T07:07:32.130Z,3.08
2024-04-25T07:08:04.155Z,2.22
2024-04-25T07:08:35.911Z,2.70
2024-04-25T07:09:08.809Z,2.45
2024-04-25T07:09:40.634Z,2.67
2024-04-25T07:10:12.403Z,2.47
2024-04-25T07:10:44.212Z,2.63